Time;durP1;ratioP1;P1;durP2;ratioP2;P2;SDS_P1;SDS_P2;PMS_P1;PMS_P2;Temp;Humidity;BMP_temperature;BMP_pressure;BME280_temperature;BME280_humidity;BME280_pressure;Samples;Min_cycle;Max_cycle;Signal;HPM_P1;HPM_P2
2022/01/05 00:00:16;;;;;;;2.25;1.55;;;;;;;;;;5087902;28;20012;-49
2022/01/05 00:02:42;;;;;;;2.35;1.38;;;;;;;;;;5088469;28;20411;-47
2022/01/05 00:05:09;;;;;;;2.50;1.30;;;;;;;;;;5085610;28;20059;-48
2022/01/05 00:07:35;;;;;;;2.15;0.95;;;;;;;;;;5101748;28;20799;-47
2022/01/05 00:10:01;;;;;;;1.73;0.90;;;;;;;;;;5106336;28;20054;-47
2022/01/05 00:12:27;;;;;;;0.80;0.70;;;;;;;;;;5087303;28;20024;-47
2022/01/05 00:14:53;;;;;;;1.63;1.00;;;;;;;;;;5086272;28;20027;-47
2022/01/05 00:17:20;;;;;;;2.67;1.35;;;;;;;;;;5084613;28;20036;-48
2022/01/05 00:19:47;;;;;;;2.00;1.30;;;;;;;;;;5086448;28;20376;-47
2022/01/05 00:22:14;;;;;;;1.83;1.02;;;;;;;;;;5086609;28;20024;-48
2022/01/05 00:24:41;;;;;;;1.50;1.20;;;;;;;;;;5086446;28;20024;-47
2022/01/05 00:27:08;;;;;;;2.13;1.20;;;;;;;;;;5084039;28;20139;-47
2022/01/05 00:29:34;;;;;;;1.35;0.88;;;;;;;;;;5086353;28;20491;-48
2022/01/05 00:32:01;;;;;;;1.10;0.98;;;;;;;;;;5085776;28;20518;-48
2022/01/05 00:34:28;;;;;;;1.15;0.80;;;;;;;;;;5086067;28;20020;-48
2022/01/05 00:36:54;;;;;;;1.50;0.70;;;;;;;;;;5092969;28;20486;-48
2022/01/05 00:39:20;;;;;;;1.08;0.63;;;;;;;;;;5105942;28;20028;-49
2022/01/05 00:41:47;;;;;;;1.35;0.70;;;;;;;;;;5092840;28;20032;-49
2022/01/05 00:44:13;;;;;;;0.30;0.30;;;;;;;;;;5107143;28;20077;-47
2022/01/05 00:46:39;;;;;;;1.23;0.50;;;;;;;;;;5097733;28;20031;-47
2022/01/05 00:49:05;;;;;;;1.20;0.50;;;;;;;;;;5106072;28;20915;-47
2022/01/05 00:51:32;;;;;;;2.38;0.70;;;;;;;;;;5106211;28;20409;-48
2022/01/05 00:53:58;;;;;;;2.65;1.10;;;;;;;;;;5104860;28;20031;-48
2022/01/05 00:56:24;;;;;;;2.45;0.98;;;;;;;;;;5091998;28;20031;-50
2022/01/05 00:58:50;;;;;;;1.35;0.70;;;;;;;;;;5105638;28;20096;-47
2022/01/05 01:01:17;;;;;;;2.03;0.93;;;;;;;;;;5105262;28;20470;-48
2022/01/05 01:03:42;;;;;;;1.35;0.57;;;;;;;;;;5106845;28;20020;-48
2022/01/05 01:06:09;;;;;;;0.38;0.38;;;;;;;;;;5102164;28;20552;-47
2022/01/05 01:08:35;;;;;;;1.30;0.70;;;;;;;;;;5039771;28;1321810;-47
2022/01/05 01:11:01;;;;;;;2.30;0.73;;;;;;;;;;5085811;28;20412;-47
2022/01/05 01:13:27;;;;;;;1.55;0.70;;;;;;;;;;5086605;28;20024;-47
2022/01/05 01:15:54;;;;;;;0.95;0.80;;;;;;;;;;5096373;28;20039;-48
2022/01/05 01:18:20;;;;;;;2.20;0.90;;;;;;;;;;5104444;28;20036;-49
2022/01/05 01:20:47;;;;;;;1.73;0.93;;;;;;;;;;5106825;28;20314;-46
2022/01/05 01:23:14;;;;;;;1.55;0.80;;;;;;;;;;5103913;28;20020;-47
2022/01/05 01:25:40;;;;;;;0.65;0.55;;;;;;;;;;5084460;28;20325;-48
2022/01/05 01:28:06;;;;;;;0.90;0.70;;;;;;;;;;5102009;28;20030;-48
2022/01/05 01:30:33;;;;;;;1.73;0.60;;;;;;;;;;5107109;28;20028;-48
2022/01/05 01:33:00;;;;;;;0.63;0.60;;;;;;;;;;5106182;28;20477;-46
2022/01/05 01:35:27;;;;;;;0.70;0.60;;;;;;;;;;5106449;28;20028;-48
2022/01/05 01:37:54;;;;;;;1.63;0.73;;;;;;;;;;5089918;28;20229;-50
2022/01/05 01:40:21;;;;;;;1.73;0.70;;;;;;;;;;5098774;28;20391;-48
2022/01/05 01:42:48;;;;;;;1.00;0.90;;;;;;;;;;5085991;28;20024;-47
2022/01/05 01:45:14;;;;;;;1.67;0.80;;;;;;;;;;5085458;28;20399;-47
2022/01/05 01:47:42;;;;;;;1.38;0.75;;;;;;;;;;5085391;28;20387;-47
2022/01/05 01:50:09;;;;;;;0.65;0.50;;;;;;;;;;5105962;28;20031;-46
2022/01/05 01:52:35;;;;;;;0.70;0.57;;;;;;;;;;5106098;28;20028;-47
2022/01/05 01:55:02;;;;;;;1.35;0.60;;;;;;;;;;5105931;28;20046;-48
2022/01/05 01:57:29;;;;;;;0.90;0.50;;;;;;;;;;5086738;28;20064;-47
2022/01/05 01:59:58;;;;;;;0.43;0.40;;;;;;;;;;5105903;28;20118;-46
2022/01/05 02:02:24;;;;;;;0.65;0.57;;;;;;;;;;5105879;28;20016;-47
2022/01/05 02:04:51;;;;;;;0.45;0.40;;;;;;;;;;5097466;28;20059;-47
2022/01/05 02:07:17;;;;;;;0.60;0.40;;;;;;;;;;5102756;28;20538;-46
2022/01/05 02:09:44;;;;;;;1.10;0.40;;;;;;;;;;5085408;28;20052;-46
2022/01/05 02:12:11;;;;;;;0.45;0.43;;;;;;;;;;5084464;28;20527;-47
2022/01/05 02:14:37;;;;;;;0.63;0.40;;;;;;;;;;5085447;28;20114;-47
2022/01/05 02:17:09;;;;;;;0.55;0.32;;;;;;;;;;5084976;28;20027;-47
2022/01/05 02:19:36;;;;;;;1.45;0.50;;;;;;;;;;5083484;28;20027;-46
2022/01/05 02:22:02;;;;;;;0.30;0.30;;;;;;;;;;5085025;28;20032;-47
2022/01/05 02:24:28;;;;;;;0.93;0.55;;;;;;;;;;5083570;28;20486;-46
2022/01/05 02:26:54;;;;;;;0.40;0.40;;;;;;;;;;5084532;28;20022;-46
2022/01/05 02:29:21;;;;;;;0.60;0.40;;;;;;;;;;5085042;28;20039;-47
2022/01/05 02:31:47;;;;;;;0.50;0.50;;;;;;;;;;5084942;28;20070;-47
2022/01/05 02:34:17;;;;;;;0.65;0.52;;;;;;;;;;5084352;28;20023;-47
2022/01/05 02:36:43;;;;;;;0.43;0.32;;;;;;;;;;5085911;28;20028;-46
2022/01/05 02:39:09;;;;;;;0.45;0.40;;;;;;;;;;5084878;28;20086;-47
2022/01/05 02:41:35;;;;;;;0.40;0.40;;;;;;;;;;5084413;28;20035;-47
2022/01/05 02:44:01;;;;;;;0.30;0.30;;;;;;;;;;5084730;28;20028;-47
2022/01/05 02:46:29;;;;;;;0.55;0.40;;;;;;;;;;5084198;28;20027;-46
2022/01/05 02:48:56;;;;;;;0.30;0.30;;;;;;;;;;5084663;28;20025;-46
2022/01/05 02:51:23;;;;;;;0.30;0.30;;;;;;;;;;5086387;28;20038;-46
2022/01/05 02:53:50;;;;;;;3.42;0.30;;;;;;;;;;5105659;28;20034;-47
2022/01/05 02:56:18;;;;;;;0.40;0.40;;;;;;;;;;5092814;28;20036;-48
2022/01/05 02:58:45;;;;;;;1.05;0.30;;;;;;;;;;5085393;28;20049;-47
2022/01/05 03:01:11;;;;;;;0.30;0.30;;;;;;;;;;5084269;28;20107;-47
2022/01/05 03:03:38;;;;;;;0.40;0.40;;;;;;;;;;5089046;28;20024;-46
2022/01/05 03:06:04;;;;;;;0.25;0.20;;;;;;;;;;5102478;28;20077;-47
2022/01/05 03:08:31;;;;;;;0.40;0.40;;;;;;;;;;5105140;28;20035;-48
2022/01/05 03:10:57;;;;;;;0.80;0.50;;;;;;;;;;5098006;28;20032;-47
2022/01/05 03:13:24;;;;;;;0.40;0.40;;;;;;;;;;5085064;28;20031;-47
2022/01/05 03:15:51;;;;;;;0.65;0.30;;;;;;;;;;5095258;28;20040;-46
2022/01/05 03:18:17;;;;;;;0.95;0.40;;;;;;;;;;5104862;28;20080;-49
2022/01/05 03:20:46;;;;;;;0.30;0.30;;;;;;;;;;5105818;28;20448;-47
2022/01/05 03:23:13;;;;;;;0.40;0.40;;;;;;;;;;5105225;28;20020;-47
2022/01/05 03:25:40;;;;;;;0.57;0.45;;;;;;;;;;5098065;28;20422;-47
2022/01/05 03:28:08;;;;;;;0.77;0.50;;;;;;;;;;5084238;28;20538;-49
2022/01/05 03:30:34;;;;;;;0.35;0.30;;;;;;;;;;5084398;28;20521;-46
2022/01/05 03:35:27;;;;;;;0.30;0.30;;;;;;;;;;5090923;28;20799;-47
2022/01/05 03:37:53;;;;;;;0.40;0.40;;;;;;;;;;5104693;28;20030;-46
2022/01/05 03:40:19;;;;;;;0.57;0.40;;;;;;;;;;5103124;28;20111;-47
2022/01/05 03:42:46;;;;;;;0.57;0.50;;;;;;;;;;5087002;28;20463;-46
2022/01/05 03:45:12;;;;;;;0.38;0.30;;;;;;;;;;5102155;28;20027;-46
2022/01/05 03:47:38;;;;;;;0.30;0.30;;;;;;;;;;5101940;28;20043;-47
2022/01/05 03:50:05;;;;;;;0.30;0.30;;;;;;;;;;5104459;28;20023;-46
2022/01/05 03:52:31;;;;;;;0.40;0.30;;;;;;;;;;5104662;28;20506;-47
2022/01/05 03:54:57;;;;;;;0.65;0.47;;;;;;;;;;5101573;28;20051;-47
2022/01/05 03:57:24;;;;;;;0.85;0.40;;;;;;;;;;5085257;28;20027;-47
2022/01/05 03:59:51;;;;;;;0.30;0.30;;;;;;;;;;5085430;28;20061;-47
2022/01/05 04:02:17;;;;;;;0.45;0.30;;;;;;;;;;5087705;28;20028;-47
2022/01/05 04:04:43;;;;;;;0.30;0.30;;;;;;;;;;5090158;28;20021;-47
2022/01/05 04:07:09;;;;;;;0.52;0.40;;;;;;;;;;5094730;28;20023;-46
2022/01/05 04:09:35;;;;;;;0.30;0.30;;;;;;;;;;5109826;28;20027;-47
2022/01/05 04:12:02;;;;;;;0.30;0.30;;;;;;;;;;5100359;28;20031;-48
2022/01/05 04:14:28;;;;;;;0.45;0.30;;;;;;;;;;5097548;28;20075;-46
2022/01/05 04:16:54;;;;;;;0.20;0.20;;;;;;;;;;5088100;28;20017;-46
2022/01/05 04:19:20;;;;;;;0.45;0.22;;;;;;;;;;5089247;28;20414;-48
2022/01/05 04:21:46;;;;;;;0.52;0.40;;;;;;;;;;5089696;28;20085;-51
2022/01/05 04:24:12;;;;;;;0.47;0.30;;;;;;;;;;5089497;28;20032;-47
2022/01/05 04:26:38;;;;;;;0.20;0.20;;;;;;;;;;5088765;28;20103;-48
2022/01/05 04:29:04;;;;;;;0.10;0.10;;;;;;;;;;5087538;28;20039;-46
2022/01/05 04:31:30;;;;;;;0.20;0.20;;;;;;;;;;5088991;28;20043;-49
2022/01/05 04:33:56;;;;;;;0.20;0.20;;;;;;;;;;5089097;28;20857;-47
2022/01/05 04:36:23;;;;;;;0.20;0.20;;;;;;;;;;5088686;28;20544;-47
2022/01/05 04:38:49;;;;;;;0.20;0.20;;;;;;;;;;5093094;28;20035;-47
2022/01/05 04:41:15;;;;;;;0.32;0.30;;;;;;;;;;5100489;28;20026;-47
2022/01/05 04:43:41;;;;;;;0.30;0.30;;;;;;;;;;5089233;28;20103;-49
2022/01/05 04:46:07;;;;;;;0.13;0.13;;;;;;;;;;5088050;28;20024;-48
2022/01/05 04:48:33;;;;;;;0.43;0.30;;;;;;;;;;5078300;28;20521;-46
2022/01/05 04:50:59;;;;;;;0.30;0.30;;;;;;;;;;5098530;28;20388;-48
2022/01/05 04:53:25;;;;;;;0.30;0.30;;;;;;;;;;5068744;28;20081;-47
2022/01/05 04:55:51;;;;;;;0.30;0.30;;;;;;;;;;5085660;28;20285;-48
2022/01/05 04:58:17;;;;;;;0.30;0.30;;;;;;;;;;5104622;28;20050;-48
2022/01/05 05:00:44;;;;;;;0.40;0.40;;;;;;;;;;5101666;28;20020;-48
2022/01/05 05:03:10;;;;;;;0.20;0.20;;;;;;;;;;5083830;28;20256;-49
2022/01/05 05:05:37;;;;;;;0.52;0.40;;;;;;;;;;5082412;28;20024;-47
2022/01/05 05:08:03;;;;;;;0.70;0.50;;;;;;;;;;5085560;28;20040;-48
2022/01/05 05:10:30;;;;;;;0.98;0.50;;;;;;;;;;5090810;28;20028;-48
2022/01/05 05:12:56;;;;;;;2.83;0.65;;;;;;;;;;5087526;28;20029;-51
2022/01/05 05:15:22;;;;;;;0.50;0.50;;;;;;;;;;5086551;28;20081;-47
2022/01/05 05:17:49;;;;;;;0.60;0.60;;;;;;;;;;5087353;28;20036;-47
2022/01/05 05:20:15;;;;;;;0.75;0.55;;;;;;;;;;5103954;28;20090;-47
2022/01/05 05:22:42;;;;;;;0.77;0.77;;;;;;;;;;5088326;28;20487;-48
2022/01/05 05:25:09;;;;;;;1.35;0.90;;;;;;;;;;5087283;28;20024;-47
2022/01/05 05:27:35;;;;;;;1.35;1.15;;;;;;;;;;5086746;28;20062;-46
2022/01/05 05:30:01;;;;;;;2.17;1.30;;;;;;;;;;5087013;28;20036;-50
2022/01/05 05:32:28;;;;;;;2.30;1.88;;;;;;;;;;5086302;28;20036;-50
2022/01/05 05:34:55;;;;;;;1.65;1.48;;;;;;;;;;5087385;28;20028;-50
2022/01/05 05:37:22;;;;;;;2.78;1.90;;;;;;;;;;5086859;28;20036;-47
2022/01/05 05:39:48;;;;;;;1.42;1.33;;;;;;;;;;5085655;28;20281;-47
2022/01/05 05:42:14;;;;;;;1.70;1.35;;;;;;;;;;5086857;28;20032;-49
2022/01/05 05:44:40;;;;;;;1.20;1.00;;;;;;;;;;5087178;28;20088;-46
2022/01/05 05:47:06;;;;;;;1.23;1.13;;;;;;;;;;5086590;28;20093;-47
2022/01/05 05:49:32;;;;;;;1.33;1.23;;;;;;;;;;5085132;28;20036;-51
2022/01/05 05:51:58;;;;;;;1.40;1.27;;;;;;;;;;5086480;28;20422;-47
2022/01/05 05:54:25;;;;;;;1.95;1.50;;;;;;;;;;5086648;28;20025;-47
2022/01/05 05:56:51;;;;;;;2.17;1.50;;;;;;;;;;5086381;28;20020;-49
2022/01/05 05:59:17;;;;;;;1.58;1.33;;;;;;;;;;5084377;28;20525;-46
2022/01/05 06:01:43;;;;;;;4.03;3.15;;;;;;;;;;5087398;28;20020;-47
2022/01/05 06:04:09;;;;;;;6.82;4.10;;;;;;;;;;5086538;28;20534;-47
2022/01/05 06:06:36;;;;;;;5.53;3.55;;;;;;;;;;5086908;28;20484;-47
2022/01/05 06:09:03;;;;;;;4.80;3.47;;;;;;;;;;5084927;28;20034;-50
2022/01/05 06:11:29;;;;;;;4.75;2.90;;;;;;;;;;5090209;28;20036;-48
2022/01/05 06:13:56;;;;;;;8.88;4.47;;;;;;;;;;5084926;28;20032;-47
2022/01/05 06:16:22;;;;;;;8.30;4.50;;;;;;;;;;5085738;28;20043;-46
2022/01/05 06:18:50;;;;;;;7.43;4.07;;;;;;;;;;5086476;28;20036;-47
2022/01/05 06:21:16;;;;;;;6.82;3.65;;;;;;;;;;5104942;28;20042;-46
2022/01/05 06:23:42;;;;;;;9.73;4.90;;;;;;;;;;5107132;28;20027;-48
2022/01/05 06:26:08;;;;;;;9.48;4.93;;;;;;;;;;5097839;28;20533;-47
2022/01/05 06:28:34;;;;;;;9.38;5.05;;;;;;;;;;5086108;28;20024;-47
2022/01/05 06:31:01;;;;;;;11.13;5.93;;;;;;;;;;5091967;28;20035;-47
2022/01/05 06:33:27;;;;;;;7.80;4.30;;;;;;;;;;5106401;28;20031;-48
2022/01/05 06:35:53;;;;;;;8.50;4.07;;;;;;;;;;5101293;28;20032;-48
2022/01/05 06:38:19;;;;;;;5.95;3.17;;;;;;;;;;5085566;28;20376;-48
2022/01/05 06:40:45;;;;;;;6.07;3.50;;;;;;;;;;5089390;28;20023;-47
2022/01/05 06:43:13;;;;;;;10.57;3.92;;;;;;;;;;5096538;28;20099;-47
2022/01/05 06:45:40;;;;;;;6.43;2.95;;;;;;;;;;5085878;28;20027;-47
2022/01/05 06:48:06;;;;;;;7.72;3.22;;;;;;;;;;5085915;28;20030;-48
2022/01/05 06:50:32;;;;;;;16.65;5.53;;;;;;;;;;5082049;28;20049;-47
2022/01/05 06:52:58;;;;;;;10.45;4.18;;;;;;;;;;5085621;28;20418;-49
2022/01/05 06:55:25;;;;;;;9.18;3.65;;;;;;;;;;5085466;28;20118;-46
2022/01/05 06:57:52;;;;;;;8.60;3.30;;;;;;;;;;5085308;28;20039;-49
2022/01/05 07:00:18;;;;;;;5.05;2.72;;;;;;;;;;5085734;28;20137;-50
2022/01/05 07:02:44;;;;;;;2.63;1.90;;;;;;;;;;5099928;28;20559;-48
2022/01/05 07:05:11;;;;;;;3.08;2.13;;;;;;;;;;5085419;28;20028;-46
2022/01/05 07:07:38;;;;;;;2.30;1.80;;;;;;;;;;5085586;28;20418;-49
2022/01/05 07:10:07;;;;;;;3.75;2.50;;;;;;;;;;5085454;28;20036;-50
2022/01/05 07:12:34;;;;;;;3.00;2.47;;;;;;;;;;5083400;28;20074;-49
2022/01/05 07:15:00;;;;;;;2.50;1.70;;;;;;;;;;5083999;28;20033;-47
2022/01/05 07:17:27;;;;;;;1.48;1.38;;;;;;;;;;5085239;28;20030;-46
2022/01/05 07:19:53;;;;;;;1.75;1.40;;;;;;;;;;5083747;28;20054;-48
2022/01/05 07:22:20;;;;;;;1.30;1.20;;;;;;;;;;5085099;28;20024;-50
2022/01/05 07:24:46;;;;;;;1.30;1.20;;;;;;;;;;5085701;28;20035;-45
2022/01/05 07:27:12;;;;;;;3.72;1.00;;;;;;;;;;5085522;28;20507;-50
2022/01/05 07:29:38;;;;;;;1.27;0.85;;;;;;;;;;5091383;28;20063;-47
2022/01/05 07:32:05;;;;;;;0.93;0.80;;;;;;;;;;5082722;28;20102;-51
2022/01/05 07:34:31;;;;;;;0.85;0.60;;;;;;;;;;5095962;28;20474;-54
2022/01/05 07:36:57;;;;;;;1.25;0.70;;;;;;;;;;5090293;28;20085;-48
2022/01/05 07:39:23;;;;;;;2.78;1.00;;;;;;;;;;5096678;28;20036;-47
2022/01/05 07:41:49;;;;;;;1.20;1.10;;;;;;;;;;5071651;28;20070;-46
2022/01/05 07:44:15;;;;;;;2.33;1.40;;;;;;;;;;5107926;28;20249;-48
2022/01/05 07:46:42;;;;;;;1.85;1.38;;;;;;;;;;5111652;28;20024;-47
2022/01/05 07:49:08;;;;;;;2.13;1.35;;;;;;;;;;5110045;28;20576;-50
2022/01/05 07:51:35;;;;;;;2.33;1.80;;;;;;;;;;5090408;28;20069;-46
2022/01/05 07:54:01;;;;;;;2.17;1.30;;;;;;;;;;5087494;28;20040;-49
2022/01/05 07:56:27;;;;;;;4.07;1.77;;;;;;;;;;5089715;28;20095;-49
2022/01/05 07:58:54;;;;;;;6.00;2.22;;;;;;;;;;5087289;28;20184;-51
2022/01/05 08:01:20;;;;;;;18.52;6.40;;;;;;;;;;5084357;28;20539;-52
2022/01/05 08:03:47;;;;;;;11.93;4.63;;;;;;;;;;5080814;28;20024;-49
2022/01/05 08:06:13;;;;;;;8.48;3.92;;;;;;;;;;5090629;28;20035;-48
2022/01/05 08:08:39;;;;;;;8.57;3.72;;;;;;;;;;5101759;28;20044;-52
2022/01/05 08:11:05;;;;;;;4.72;2.30;;;;;;;;;;5091683;28;20536;-49
2022/01/05 08:13:31;;;;;;;3.78;2.08;;;;;;;;;;5089072;28;20039;-46
2022/01/05 08:15:57;;;;;;;3.78;2.22;;;;;;;;;;5088061;28;20103;-46
2022/01/05 08:18:23;;;;;;;3.65;1.80;;;;;;;;;;5086045;28;20418;-47
2022/01/05 08:20:49;;;;;;;3.08;1.55;;;;;;;;;;5089647;28;20080;-47
2022/01/05 08:23:19;;;;;;;1.42;1.17;;;;;;;;;;5089199;28;20034;-49
2022/01/05 08:25:46;;;;;;;1.85;0.70;;;;;;;;;;5089413;28;20025;-45
2022/01/05 08:28:12;;;;;;;2.30;0.90;;;;;;;;;;5103858;28;20028;-46
2022/01/05 08:30:39;;;;;;;2.25;1.08;;;;;;;;;;5099271;28;20064;-48
2022/01/05 08:33:05;;;;;;;1.63;0.70;;;;;;;;;;5089101;28;20024;-48
2022/01/05 08:35:32;;;;;;;1.02;0.70;;;;;;;;;;5086508;28;20024;-46
2022/01/05 08:37:59;;;;;;;1.30;0.80;;;;;;;;;;5097323;28;20046;-48
2022/01/05 08:40:26;;;;;;;1.05;0.70;;;;;;;;;;5072975;28;20065;-46
2022/01/05 08:42:53;;;;;;;1.38;0.95;;;;;;;;;;5089061;28;20039;-49
2022/01/05 08:45:19;;;;;;;1.73;0.90;;;;;;;;;;5091924;28;20016;-49
2022/01/05 08:47:47;;;;;;;1.90;0.98;;;;;;;;;;5076730;28;20040;-48
2022/01/05 08:50:17;;;;;;;2.47;1.30;;;;;;;;;;5089449;28;20028;-48
2022/01/05 08:52:43;;;;;;;3.00;1.67;;;;;;;;;;5089784;28;20036;-47
2022/01/05 08:55:10;;;;;;;2.90;1.33;;;;;;;;;;5086945;28;20032;-47
2022/01/05 08:57:36;;;;;;;2.92;1.50;;;;;;;;;;5087905;28;20035;-50
2022/01/05 09:00:04;;;;;;;3.03;1.45;;;;;;;;;;5088925;28;20073;-47
2022/01/05 09:02:30;;;;;;;3.38;1.65;;;;;;;;;;5088790;28;20106;-49
2022/01/05 09:04:56;;;;;;;2.35;1.40;;;;;;;;;;5097973;28;20502;-49
2022/01/05 09:07:22;;;;;;;2.10;1.40;;;;;;;;;;5109399;28;20453;-50
2022/01/05 09:09:49;;;;;;;4.03;1.35;;;;;;;;;;5109487;28;20487;-49
2022/01/05 09:12:15;;;;;;;5.13;1.98;;;;;;;;;;5091949;28;20437;-52
2022/01/05 09:14:41;;;;;;;3.75;1.80;;;;;;;;;;5104064;28;20070;-50
2022/01/05 09:17:07;;;;;;;4.10;1.85;;;;;;;;;;5094892;28;20123;-51
2022/01/05 09:19:34;;;;;;;3.88;1.73;;;;;;;;;;5069863;28;20564;-49
2022/01/05 09:22:00;;;;;;;3.88;1.52;;;;;;;;;;5088342;28;20039;-50
2022/01/05 09:24:26;;;;;;;5.43;1.67;;;;;;;;;;5092811;28;20091;-51
2022/01/05 09:26:52;;;;;;;4.97;1.70;;;;;;;;;;5094618;28;20439;-48
2022/01/05 09:29:19;;;;;;;4.25;1.48;;;;;;;;;;5088348;28;20028;-50
2022/01/05 09:31:45;;;;;;;3.30;1.60;;;;;;;;;;5086525;28;20028;-47
2022/01/05 09:34:11;;;;;;;3.92;1.20;;;;;;;;;;5087711;28;20124;-48
2022/01/05 09:36:43;;;;;;;3.65;2.00;;;;;;;;;;5088176;28;20032;-46
2022/01/05 09:41:59;;;;;;;5.35;2.03;;;;;;;;;;5082203;28;20054;-48
2022/01/05 09:44:30;;;;;;;5.95;2.45;;;;;;;;;;5090539;28;20020;-47
2022/01/05 09:47:08;;;;;;;4.75;1.58;;;;;;;;;;5097139;28;20114;-49
2022/01/05 09:49:36;;;;;;;3.13;1.48;;;;;;;;;;5092668;28;20062;-47
2022/01/05 09:52:06;;;;;;;3.42;1.42;;;;;;;;;;5090903;28;20399;-47
2022/01/05 09:54:34;;;;;;;4.82;1.50;;;;;;;;;;5087523;28;20032;-47
2022/01/05 09:57:00;;;;;;;3.75;1.50;;;;;;;;;;5098143;28;20054;-49
2022/01/05 09:59:26;;;;;;;4.38;1.55;;;;;;;;;;5092801;28;20024;-50
2022/01/05 10:01:52;;;;;;;3.35;2.00;;;;;;;;;;5086284;28;20106;-46
2022/01/05 10:04:18;;;;;;;5.45;1.60;;;;;;;;;;5080971;28;20032;-47
2022/01/05 10:06:44;;;;;;;4.35;2.17;;;;;;;;;;5099732;28;20028;-47
2022/01/05 10:09:10;;;;;;;4.97;2.15;;;;;;;;;;5107561;28;20042;-48
2022/01/05 10:11:37;;;;;;;5.65;2.30;;;;;;;;;;5094573;28;20036;-46
2022/01/05 10:14:03;;;;;;;6.00;2.28;;;;;;;;;;5087069;28;20031;-47
2022/01/05 10:16:30;;;;;;;5.32;2.42;;;;;;;;;;5085850;28;20545;-48
2022/01/05 10:18:56;;;;;;;9.23;3.50;;;;;;;;;;5084641;28;20034;-51
2022/01/05 10:21:22;;;;;;;7.80;3.50;;;;;;;;;;5085911;28;20062;-52
2022/01/05 10:23:50;;;;;;;7.03;3.05;;;;;;;;;;5087699;28;20213;-51
2022/01/05 10:26:19;;;;;;;6.85;2.55;;;;;;;;;;5086880;28;20032;-52
2022/01/05 10:28:46;;;;;;;4.88;2.17;;;;;;;;;;5086972;28;20020;-51
2022/01/05 10:31:15;;;;;;;4.40;1.83;;;;;;;;;;5085989;28;20035;-49
2022/01/05 10:33:41;;;;;;;2.40;1.20;;;;;;;;;;5107662;28;20656;-47
2022/01/05 10:36:07;;;;;;;1.75;1.00;;;;;;;;;;5107562;28;20102;-47
2022/01/05 10:38:34;;;;;;;5.13;1.35;;;;;;;;;;5098202;28;20056;-48
2022/01/05 10:41:13;;;;;;;3.33;1.10;;;;;;;;;;5086515;28;20090;-49
2022/01/05 10:43:59;;;;;;;4.38;1.20;;;;;;;;;;5087485;28;20115;-46
2022/01/05 10:46:33;;;;;;;3.95;1.13;;;;;;;;;;5087450;28;20110;-47
2022/01/05 10:49:00;;;;;;;3.35;1.00;;;;;;;;;;5089736;28;20790;-47
2022/01/05 10:51:30;;;;;;;3.33;1.02;;;;;;;;;;5103836;28;20039;-47
2022/01/05 10:54:12;;;;;;;2.47;0.95;;;;;;;;;;5095466;28;20054;-50
2022/01/05 10:56:38;;;;;;;1.25;0.85;;;;;;;;;;5086148;28;20032;-48
2022/01/05 10:59:04;;;;;;;2.75;0.80;;;;;;;;;;5085302;28;20058;-48
2022/01/05 11:01:30;;;;;;;1.27;0.73;;;;;;;;;;5076673;28;20443;-48
2022/01/05 11:03:56;;;;;;;4.57;1.23;;;;;;;;;;5085965;28;20020;-49
2022/01/05 11:06:23;;;;;;;3.28;1.00;;;;;;;;;;5095472;28;20031;-49
2022/01/05 11:08:49;;;;;;;2.55;0.90;;;;;;;;;;5098759;28;20105;-48
2022/01/05 11:11:30;;;;;;;5.20;1.05;;;;;;;;;;5087567;28;20067;-48
2022/01/05 11:13:56;;;;;;;3.95;1.17;;;;;;;;;;5090421;28;20059;-52
2022/01/05 11:16:26;;;;;;;3.72;1.08;;;;;;;;;;5094343;28;20036;-51
2022/01/05 11:19:11;;;;;;;2.88;1.00;;;;;;;;;;5091880;28;20035;-47
2022/01/05 11:21:37;;;;;;;;;;;;;;;;;;5090528;28;20066;-49
2022/01/05 11:24:03;;;;;;;4.13;1.00;;;;;;;;;;5090465;28;19943;-51
2022/01/05 11:26:29;;;;;;;2.70;1.13;;;;;;;;;;5094926;28;20024;-50
2022/01/05 11:28:56;;;;;;;3.47;1.30;;;;;;;;;;5089125;28;20039;-50
2022/01/05 11:31:22;;;;;;;4.47;1.20;;;;;;;;;;5089954;28;20032;-50
2022/01/05 11:33:48;;;;;;;4.22;1.40;;;;;;;;;;5093734;28;20032;-51
2022/01/05 11:36:14;;;;;;;3.15;0.98;;;;;;;;;;5089442;28;20047;-48
2022/01/05 11:38:40;;;;;;;1.85;0.93;;;;;;;;;;5090365;28;20068;-51
2022/01/05 11:41:10;;;;;;;4.13;1.58;;;;;;;;;;5089836;28;20517;-50
2022/01/05 11:43:39;;;;;;;4.55;2.10;;;;;;;;;;5094663;28;20023;-49
2022/01/05 11:46:16;;;;;;;5.13;1.80;;;;;;;;;;5090180;28;20372;-51
2022/01/05 11:48:58;;;;;;;2.88;1.30;;;;;;;;;;5080252;28;20036;-48
2022/01/05 11:51:50;;;;;;;3.10;1.42;;;;;;;;;;5080200;28;20032;-48
2022/01/05 11:54:34;;;;;;;4.43;1.60;;;;;;;;;;5086887;28;20046;-49
2022/01/05 11:57:08;;;;;;;4.05;1.45;;;;;;;;;;5091807;28;20093;-48
2022/01/05 11:59:36;;;;;;;4.75;2.03;;;;;;;;;;5089341;28;20029;-47
2022/01/05 12:02:02;;;;;;;4.38;1.25;;;;;;;;;;5095975;28;20053;-52
2022/01/05 12:04:29;;;;;;;3.53;1.45;;;;;;;;;;5088452;28;20032;-48
2022/01/05 12:07:00;;;;;;;3.63;1.55;;;;;;;;;;5090272;28;20031;-49
2022/01/05 12:09:27;;;;;;;4.40;1.70;;;;;;;;;;5087753;28;20039;-48
2022/01/05 12:11:54;;;;;;;6.45;1.95;;;;;;;;;;5089618;28;20425;-47
2022/01/05 12:14:20;;;;;;;5.35;1.40;;;;;;;;;;5104700;28;20040;-48
2022/01/05 12:17:02;;;;;;;7.15;1.52;;;;;;;;;;5081361;28;20039;-47
2022/01/05 12:19:32;;;;;;;5.70;1.90;;;;;;;;;;5087642;28;20470;-52
2022/01/05 12:21:59;;;;;;;2.85;1.25;;;;;;;;;;5082232;28;20032;-48
2022/01/05 12:24:54;;;;;;;4.45;1.23;;;;;;;;;;5094500;28;20028;-50
2022/01/05 12:27:21;;;;;;;4.57;1.50;;;;;;;;;;5076293;28;20040;-48
2022/01/05 12:29:48;;;;;;;2.67;1.08;;;;;;;;;;5089514;28;20027;-51
2022/01/05 12:32:33;;;;;;;2.67;1.13;;;;;;;;;;5092529;28;20024;-48
2022/01/05 12:35:01;;;;;;;3.83;1.30;;;;;;;;;;5080986;28;20046;-49
2022/01/05 12:37:46;;;;;;;2.15;1.25;;;;;;;;;;5107139;28;20028;-48
2022/01/05 12:40:21;;;;;;;2.58;1.13;;;;;;;;;;5102513;28;20671;-49
2022/01/05 12:42:47;;;;;;;3.80;1.30;;;;;;;;;;5081148;28;20560;-49
2022/01/05 12:45:33;;;;;;;5.03;1.48;;;;;;;;;;5094366;28;20080;-48
2022/01/05 12:48:00;;;;;;;4.10;1.83;;;;;;;;;;5086462;28;20407;-48
2022/01/05 12:50:33;;;;;;;4.00;1.63;;;;;;;;;;5086904;28;20028;-48
2022/01/05 12:52:59;;;;;;;4.28;1.67;;;;;;;;;;5086595;28;20111;-49
2022/01/05 12:55:25;;;;;;;4.40;1.10;;;;;;;;;;5087192;28;20103;-50
2022/01/05 12:57:54;;;;;;;3.63;1.17;;;;;;;;;;5087337;28;20567;-51
2022/01/05 13:00:20;;;;;;;3.03;1.13;;;;;;;;;;5086841;28;20384;-50
2022/01/05 13:02:47;;;;;;;4.95;1.40;;;;;;;;;;5087795;28;20024;-48
2022/01/05 13:05:13;;;;;;;2.80;1.17;;;;;;;;;;5088261;28;20407;-49
2022/01/05 13:07:41;;;;;;;3.40;1.10;;;;;;;;;;5086015;28;20028;-51
2022/01/05 13:10:13;;;;;;;2.03;1.00;;;;;;;;;;5086093;28;20035;-48
2022/01/05 13:12:39;;;;;;;5.35;1.42;;;;;;;;;;5067627;28;20522;-50
2022/01/05 13:15:07;;;;;;;3.22;1.42;;;;;;;;;;5101817;28;20032;-48
2022/01/05 13:17:36;;;;;;;4.70;1.55;;;;;;;;;;5092173;28;20054;-48
2022/01/05 13:20:06;;;;;;;2.00;1.10;;;;;;;;;;5092752;28;20053;-48
2022/01/05 13:22:42;;;;;;;2.85;1.30;;;;;;;;;;5069886;28;20467;-48
2022/01/05 13:25:17;;;;;;;1.70;0.85;;;;;;;;;;5088377;28;20035;-51
2022/01/05 13:27:42;;;;;;;;;;;;;;;;;;5087895;28;20574;-50
2022/01/05 13:30:10;;;;;;;5.75;1.27;;;;;;;;;;5099121;28;19912;-52
2022/01/05 13:32:38;;;;;;;2.55;0.98;;;;;;;;;;5099629;28;20118;-49
2022/01/05 13:35:18;;;;;;;3.10;0.93;;;;;;;;;;5083620;28;20448;-49
2022/01/05 13:37:47;;;;;;;2.90;1.13;;;;;;;;;;5102802;28;20031;-48
2022/01/05 13:40:14;;;;;;;3.50;1.35;;;;;;;;;;5091936;28;20058;-47
2022/01/05 13:42:43;;;;;;;4.40;1.98;;;;;;;;;;5082454;28;20032;-51
2022/01/05 13:45:11;;;;;;;4.35;1.98;;;;;;;;;;5084872;28;20032;-51
2022/01/05 13:47:38;;;;;;;3.95;1.80;;;;;;;;;;5086876;28;20027;-50
2022/01/05 13:50:05;;;;;;;4.85;1.80;;;;;;;;;;5087219;28;20047;-51
2022/01/05 13:52:31;;;;;;;3.90;1.48;;;;;;;;;;5085524;28;20499;-51
2022/01/05 13:54:58;;;;;;;1.77;1.13;;;;;;;;;;5085948;28;20020;-51
2022/01/05 13:57:32;;;;;;;3.53;1.33;;;;;;;;;;5085888;28;20031;-49
2022/01/05 14:00:00;;;;;;;7.35;1.65;;;;;;;;;;5086351;28;20031;-51
2022/01/05 14:02:29;;;;;;;3.03;1.33;;;;;;;;;;5086279;28;20117;-50
2022/01/05 14:04:56;;;;;;;3.22;1.17;;;;;;;;;;5068168;28;20063;-48
2022/01/05 14:07:23;;;;;;;3.22;1.13;;;;;;;;;;5085506;28;20039;-48
2022/01/05 14:10:22;;;;;;;3.25;1.40;;;;;;;;;;5085407;28;20031;-48
2022/01/05 14:12:49;;;;;;;1.83;1.25;;;;;;;;;;5040526;28;20035;-48
2022/01/05 14:15:16;;;;;;;3.78;1.52;;;;;;;;;;5085409;28;20035;-48
2022/01/05 14:18:18;;;;;;;2.00;1.13;;;;;;;;;;5085311;28;20040;-49
2022/01/05 14:20:48;;;;;;;3.92;1.13;;;;;;;;;;5002838;28;20034;-48
2022/01/05 14:23:15;;;;;;;3.00;1.30;;;;;;;;;;5070177;28;20082;-48
2022/01/05 14:25:48;;;;;;;4.50;1.63;;;;;;;;;;5084563;28;20100;-49
2022/01/05 14:28:24;;;;;;;4.20;1.90;;;;;;;;;;5085088;28;20461;-49
2022/01/05 14:30:52;;;;;;;3.25;1.30;;;;;;;;;;5085157;28;20081;-48
2022/01/05 14:33:30;;;;;;;3.08;1.35;;;;;;;;;;5084420;28;20055;-48
2022/01/05 14:35:57;;;;;;;2.28;1.30;;;;;;;;;;5085182;28;20028;-49
2022/01/05 14:38:25;;;;;;;2.53;1.10;;;;;;;;;;5084570;28;20032;-49
2022/01/05 14:40:53;;;;;;;3.90;1.40;;;;;;;;;;5084398;28;20027;-48
2022/01/05 14:43:20;;;;;;;3.20;1.63;;;;;;;;;;5084533;28;20582;-50
2022/01/05 14:45:46;;;;;;;4.18;1.77;;;;;;;;;;5084681;28;20400;-51
2022/01/05 14:48:12;;;;;;;4.75;1.90;;;;;;;;;;5084553;28;20328;-50
2022/01/05 14:50:38;;;;;;;8.15;2.53;;;;;;;;;;5084925;28;20032;-49